Time;durP1;ratioP1;P1;durP2;ratioP2;P2;SDS_P1;SDS_P2;PMS_P1;PMS_P2;Temp;Humidity;BMP_temperature;BMP_pressure;BME280_temperature;BME280_humidity;BME280_pressure;Samples;Min_cycle;Max_cycle;Signal;HPM_P1;HPM_P2
2023/08/29 00:01:25;;;;;;;4.90;4.50;;;15.50;99.90;;;;;;5053978;28;20175;-53
2023/08/29 00:03:51;;;;;;;5.13;4.47;;;15.40;99.90;;;;;;5053796;28;20203;-53
2023/08/29 00:06:17;;;;;;;4.95;4.55;;;15.50;99.90;;;;;;5053662;28;20180;-54
2023/08/29 00:08:42;;;;;;;4.53;4.10;;;15.50;99.90;;;;;;5053586;28;20176;-51
2023/08/29 00:11:08;;;;;;;5.82;4.15;;;15.40;99.90;;;;;;5053901;28;20183;-51
2023/08/29 00:13:34;;;;;;;5.18;4.13;;;15.30;99.90;;;;;;5053759;28;20568;-54
2023/08/29 00:16:00;;;;;;;4.57;4.18;;;15.30;99.90;;;;;;5053683;28;20586;-51
2023/08/29 00:18:26;;;;;;;4.75;4.35;;;15.30;99.90;;;;;;5053516;28;20211;-52
2023/08/29 00:20:52;;;;;;;4.38;4.07;;;15.20;99.90;;;;;;5053544;28;20223;-51
2023/08/29 00:23:18;;;;;;;5.07;4.60;;;15.20;99.90;;;;;;5053388;28;20266;-54
2023/08/29 00:25:44;;;;;;;5.00;4.60;;;15.20;99.90;;;;;;5053901;28;20199;-54
2023/08/29 00:28:11;;;;;;;5.25;4.82;;;15.10;99.90;;;;;;5053367;28;20207;-51
2023/08/29 00:30:39;;;;;;;5.15;4.75;;;15.20;99.90;;;;;;5053501;28;20179;-51
2023/08/29 00:33:05;;;;;;;5.28;4.88;;;15.10;99.90;;;;;;5053438;28;20559;-53
2023/08/29 00:35:31;;;;;;;5.53;5.07;;;15.10;99.90;;;;;;5053374;28;20179;-53
2023/08/29 00:37:58;;;;;;;6.00;5.50;;;15.00;99.90;;;;;;5053235;28;20236;-54
2023/08/29 00:40:30;;;;;;;6.63;6.13;;;14.90;99.90;;;;;;5053495;28;20199;-53
2023/08/29 00:42:59;;;;;;;6.97;6.28;;;15.00;99.90;;;;;;5053400;28;20328;-53
2023/08/29 00:45:27;;;;;;;6.97;6.38;;;15.00;99.90;;;;;;5053181;28;20248;-54
2023/08/29 00:47:53;;;;;;;7.00;6.40;;;15.00;99.90;;;;;;5053036;28;20182;-53
2023/08/29 00:50:19;;;;;;;6.95;6.22;;;15.00;99.90;;;;;;5053184;28;20636;-53
2023/08/29 00:52:45;;;;;;;6.85;6.35;;;14.90;99.90;;;;;;5052907;28;20211;-54
2023/08/29 00:55:11;;;;;;;7.40;6.70;;;14.90;99.90;;;;;;5053246;28;20229;-53
2023/08/29 00:57:37;;;;;;;6.85;6.35;;;14.90;99.90;;;;;;5053052;28;20179;-54
2023/08/29 01:00:03;;;;;;;7.55;6.85;;;14.90;99.90;;;;;;5053013;28;20722;-51
2023/08/29 01:02:29;;;;;;;7.28;6.68;;;15.00;99.90;;;;;;5053127;28;20194;-52
2023/08/29 01:04:55;;;;;;;6.72;6.15;;;14.90;99.90;;;;;;5053061;28;20175;-53
2023/08/29 01:07:20;;;;;;;7.43;6.72;;;14.90;99.90;;;;;;5052853;28;20206;-54
2023/08/29 01:09:46;;;;;;;6.95;6.40;;;14.90;99.90;;;;;;5054420;28;20187;-53
2023/08/29 01:12:14;;;;;;;6.97;6.40;;;14.90;99.90;;;;;;5057058;28;20219;-52
2023/08/29 01:15:04;;;;;;;6.82;6.32;;;15.00;99.90;;;;;;5056912;28;20228;-55
2023/08/29 01:17:44;;;;;;;7.60;6.57;;;15.00;99.90;;;;;;5056881;28;20201;-49
2023/08/29 01:20:12;;;;;;;6.75;6.25;;;15.00;99.90;;;;;;5056791;28;20210;-53
2023/08/29 01:23:18;;;;;;;7.28;6.57;;;15.00;99.90;;;;;;5056790;28;20171;-50
2023/08/29 01:26:14;;;;;;;7.45;6.88;;;14.80;99.90;;;;;;5034422;28;20183;-53
2023/08/29 01:28:44;;;;;;;7.90;7.20;;;14.80;99.90;;;;;;5057047;28;20191;-54
2023/08/29 01:31:11;;;;;;;7.68;6.93;;;14.80;99.90;;;;;;5056651;28;20176;-54
2023/08/29 01:33:38;;;;;;;7.38;6.88;;;14.80;99.90;;;;;;5056565;28;20207;-52
2023/08/29 01:36:04;;;;;;;8.00;7.28;;;14.70;99.90;;;;;;5056527;28;20187;-50
2023/08/29 01:38:30;;;;;;;7.63;6.85;;;14.70;99.90;;;;;;5056443;28;20254;-53
2023/08/29 01:40:56;;;;;;;8.60;7.80;;;14.70;99.90;;;;;;5056688;28;20198;-55
2023/08/29 01:43:21;;;;;;;9.45;7.45;;;14.70;99.90;;;;;;5056539;28;20262;-52
2023/08/29 01:45:47;;;;;;;7.53;6.85;;;14.70;99.90;;;;;;5056517;28;20592;-52
2023/08/29 01:48:13;;;;;;;7.93;7.22;;;14.70;99.90;;;;;;5056322;28;20183;-53
2023/08/29 01:50:41;;;;;;;8.20;7.50;;;14.60;99.90;;;;;;5056330;28;20176;-52
2023/08/29 01:53:07;;;;;;;7.40;6.80;;;14.60;99.90;;;;;;5055984;28;20684;-53
2023/08/29 01:55:34;;;;;;;7.50;6.90;;;14.60;99.90;;;;;;5056190;28;20214;-51
2023/08/29 01:58:03;;;;;;;7.20;6.70;;;14.50;99.90;;;;;;5056324;28;20193;-54
2023/08/29 02:00:31;;;;;;;7.80;7.20;;;14.60;99.90;;;;;;5056172;28;20168;-52
2023/08/29 02:02:57;;;;;;;8.38;7.57;;;14.50;99.90;;;;;;5056044;28;20549;-52
2023/08/29 02:05:23;;;;;;;7.82;7.15;;;14.60;99.90;;;;;;5055985;28;20167;-51
2023/08/29 02:07:49;;;;;;;7.70;6.97;;;14.60;99.90;;;;;;5055886;28;20175;-53
2023/08/29 02:10:15;;;;;;;8.63;7.80;;;14.50;99.90;;;;;;5056078;28;20178;-53
2023/08/29 02:12:41;;;;;;;7.82;7.20;;;14.60;99.90;;;;;;5055879;28;20555;-49
2023/08/29 02:15:08;;;;;;;8.30;7.50;;;14.60;99.90;;;;;;5055862;28;20263;-54
2023/08/29 02:17:33;;;;;;;7.95;7.30;;;14.60;99.90;;;;;;5055760;28;20206;-53
2023/08/29 02:19:59;;;;;;;6.93;6.43;;;14.50;99.90;;;;;;5054777;28;20223;-51
2023/08/29 02:22:25;;;;;;;8.05;7.35;;;14.50;99.90;;;;;;5055431;28;20183;-52
2023/08/29 02:24:51;;;;;;;7.68;7.00;;;14.40;99.90;;;;;;5055805;28;20171;-53
2023/08/29 02:27:16;;;;;;;7.93;7.13;;;14.30;99.90;;;;;;5055755;28;20252;-53
2023/08/29 02:29:42;;;;;;;7.72;6.97;;;14.30;99.90;;;;;;5055642;28;20262;-54
2023/08/29 02:32:07;;;;;;;6.75;6.25;;;14.40;99.90;;;;;;5055469;28;20207;-50
2023/08/29 02:34:33;;;;;;;7.20;6.57;;;14.50;99.90;;;;;;5055390;28;20179;-54
2023/08/29 02:36:59;;;;;;;7.38;6.78;;;14.50;99.90;;;;;;5055358;28;20178;-54
2023/08/29 02:39:25;;;;;;;7.03;6.40;;;14.50;99.90;;;;;;5055329;28;20186;-50
2023/08/29 02:41:50;;;;;;;7.93;7.32;;;14.50;99.90;;;;;;5055266;28;20172;-54
2023/08/29 02:44:16;;;;;;;7.05;6.47;;;14.50;99.90;;;;;;5054056;28;20175;-54
2023/08/29 02:46:41;;;;;;;6.93;6.40;;;14.50;99.90;;;;;;5055357;28;20202;-53
2023/08/29 02:49:07;;;;;;;7.32;6.72;;;14.50;99.90;;;;;;5055244;28;20290;-53
2023/08/29 02:51:33;;;;;;;6.93;6.32;;;14.50;99.90;;;;;;5054993;28;20266;-53
2023/08/29 02:53:58;;;;;;;8.90;8.00;;;14.50;99.90;;;;;;5054972;28;20182;-53
2023/08/29 02:56:24;;;;;;;8.30;7.60;;;14.50;99.90;;;;;;5054988;28;20179;-53
2023/08/29 02:58:52;;;;;;;8.48;7.68;;;14.60;99.90;;;;;;5055085;28;20175;-53
2023/08/29 03:01:17;;;;;;;7.40;6.82;;;14.60;99.90;;;;;;5054897;28;20750;-53
2023/08/29 03:03:43;;;;;;;8.30;7.57;;;14.60;99.90;;;;;;5054813;28;20187;-53
2023/08/29 03:06:09;;;;;;;7.43;6.85;;;14.50;99.90;;;;;;5054865;28;20178;-51
2023/08/29 03:08:34;;;;;;;8.18;7.30;;;14.50;99.90;;;;;;5053756;28;20687;-54
2023/08/29 03:11:05;;;;;;;8.25;7.15;;;14.50;99.90;;;;;;5054846;28;20225;-53
2023/08/29 03:13:32;;;;;;;8.43;7.72;;;14.50;99.90;;;;;;5054794;28;20203;-50
2023/08/29 03:16:00;;;;;;;8.00;7.35;;;14.40;99.90;;;;;;5054751;28;20203;-53
2023/08/29 03:18:27;;;;;;;8.35;7.63;;;14.40;99.90;;;;;;5054674;28;20225;-50
2023/08/29 03:20:52;;;;;;;9.10;7.85;;;14.50;99.90;;;;;;5054781;28;20234;-53
2023/08/29 03:23:18;;;;;;;8.77;8.07;;;14.60;99.90;;;;;;5054682;28;20180;-52
2023/08/29 03:25:44;;;;;;;9.68;8.07;;;14.60;99.90;;;;;;5054742;28;20536;-53
2023/08/29 03:28:09;;;;;;;10.23;8.77;;;14.70;99.90;;;;;;5054497;28;20171;-52
2023/08/29 03:30:35;;;;;;;9.52;8.75;;;14.50;99.90;;;;;;5054406;28;20179;-52
2023/08/29 03:33:01;;;;;;;10.07;9.20;;;14.70;99.90;;;;;;5053889;28;20234;-53
2023/08/29 03:35:26;;;;;;;10.40;9.40;;;14.80;99.90;;;;;;5054095;28;20186;-54
2023/08/29 03:37:52;;;;;;;8.15;7.47;;;14.80;99.90;;;;;;5054157;28;20176;-52
2023/08/29 03:40:18;;;;;;;7.47;6.88;;;14.80;99.90;;;;;;5054644;28;20182;-52
2023/08/29 03:42:43;;;;;;;7.75;7.05;;;14.80;99.90;;;;;;5054261;28;20203;-53
2023/08/29 03:45:09;;;;;;;8.40;7.70;;;14.80;99.90;;;;;;5054114;28;20179;-52
2023/08/29 03:47:37;;;;;;;8.48;7.78;;;14.70;99.90;;;;;;5054055;28;20636;-54
2023/08/29 03:50:03;;;;;;;9.02;8.23;;;14.80;99.90;;;;;;5053955;28;20191;-52
2023/08/29 03:52:29;;;;;;;8.75;7.82;;;14.80;99.90;;;;;;5054176;28;20250;-53
2023/08/29 03:54:55;;;;;;;10.23;9.43;;;14.80;99.90;;;;;;5054110;28;20179;-53
2023/08/29 03:57:27;;;;;;;12.55;11.48;;;14.80;99.90;;;;;;5054022;28;20171;-54
2023/08/29 03:59:53;;;;;;;11.82;10.80;;;14.80;99.90;;;;;;5053952;28;20171;-54
2023/08/29 04:02:18;;;;;;;12.95;11.85;;;14.80;99.90;;;;;;5053706;28;20217;-54
2023/08/29 04:04:44;;;;;;;12.35;11.30;;;14.80;99.90;;;;;;5053660;28;20497;-54
2023/08/29 04:07:10;;;;;;;13.23;12.02;;;14.80;99.90;;;;;;5053941;28;20203;-53
2023/08/29 04:09:36;;;;;;;13.30;12.20;;;14.80;99.90;;;;;;5053812;28;20175;-53
2023/08/29 04:12:02;;;;;;;12.38;11.38;;;14.80;99.90;;;;;;5053667;28;20702;-52
2023/08/29 04:14:28;;;;;;;12.93;11.82;;;14.80;99.90;;;;;;5053557;28;20187;-52
2023/08/29 04:16:54;;;;;;;12.07;11.02;;;14.70;99.90;;;;;;5053561;28;20179;-51
2023/08/29 04:19:20;;;;;;;13.02;11.98;;;14.80;99.90;;;;;;5053212;28;20235;-52
2023/08/29 04:21:46;;;;;;;12.82;11.63;;;14.90;99.90;;;;;;5053579;28;20182;-53
2023/08/29 04:24:11;;;;;;;12.52;11.52;;;14.90;99.90;;;;;;5053409;28;20171;-53
2023/08/29 04:26:37;;;;;;;12.50;11.50;;;14.80;99.90;;;;;;5053390;28;20179;-53
2023/08/29 04:29:03;;;;;;;13.23;12.02;;;14.80;99.90;;;;;;5053323;28;20632;-52
2023/08/29 04:31:28;;;;;;;12.77;11.60;;;14.80;99.90;;;;;;5053268;28;20183;-52
2023/08/29 04:33:54;;;;;;;14.85;13.48;;;14.80;99.90;;;;;;5053246;28;20293;-52
2023/08/29 04:36:20;;;;;;;13.98;12.77;;;14.80;99.90;;;;;;5053443;28;20190;-52
2023/08/29 04:38:47;;;;;;;13.52;12.32;;;14.80;99.90;;;;;;5053439;28;20517;-53
2023/08/29 04:41:13;;;;;;;14.15;12.95;;;14.90;99.90;;;;;;5053151;28;20264;-53
2023/08/29 04:43:41;;;;;;;14.40;13.10;;;14.90;99.90;;;;;;5052116;28;20237;-52
2023/08/29 04:46:07;;;;;;;15.15;13.77;;;14.80;99.90;;;;;;5051873;28;20175;-54
2023/08/29 04:48:34;;;;;;;13.98;12.70;;;14.80;99.90;;;;;;5052276;28;20532;-55
2023/08/29 04:51:00;;;;;;;15.15;13.82;;;14.80;99.90;;;;;;5053127;28;20246;-54
2023/08/29 04:53:25;;;;;;;14.90;13.50;;;14.70;99.90;;;;;;5051086;28;20215;-53
2023/08/29 04:56:11;;;;;;;14.88;13.57;;;14.60;99.90;;;;;;5051234;28;20656;-54
2023/08/29 04:58:37;;;;;;;15.02;13.82;;;14.70;99.90;;;;;;5052398;28;20597;-54
2023/08/29 05:01:03;;;;;;;14.77;13.35;;;14.80;99.90;;;;;;5052808;28;20199;-55
2023/08/29 05:03:29;;;;;;;14.50;13.20;;;14.80;99.90;;;;;;5053109;28;20183;-51
2023/08/29 05:05:54;;;;;;;14.25;12.95;;;14.80;99.90;;;;;;5052716;28;20521;-54
2023/08/29 05:08:22;;;;;;;14.75;13.32;;;14.90;99.90;;;;;;5052493;28;20176;-52
2023/08/29 05:10:48;;;;;;;14.98;13.48;;;15.00;99.90;;;;;;5051889;28;20651;-52
2023/08/29 05:13:13;;;;;;;14.50;13.15;;;15.00;99.90;;;;;;5052794;28;20203;-52
2023/08/29 05:15:39;;;;;;;13.35;12.25;;;15.10;99.90;;;;;;5052284;28;20190;-53
2023/08/29 05:18:05;;;;;;;14.00;12.80;;;15.10;99.90;;;;;;5051697;28;20265;-53
2023/08/29 05:20:31;;;;;;;13.85;12.70;;;15.00;99.90;;;;;;5052772;28;20253;-51
2023/08/29 05:22:56;;;;;;;15.50;14.00;;;15.00;99.90;;;;;;5053031;28;20229;-52
2023/08/29 05:25:23;;;;;;;15.00;13.50;;;14.90;99.90;;;;;;5052683;28;20171;-53
2023/08/29 05:27:48;;;;;;;14.85;13.48;;;15.00;99.90;;;;;;5052307;28;20179;-52
2023/08/29 05:30:14;;;;;;;15.25;13.85;;;15.00;99.90;;;;;;5052796;28;20172;-50
2023/08/29 05:32:39;;;;;;;14.65;13.32;;;15.00;99.90;;;;;;5052803;28;20634;-50
2023/08/29 05:35:07;;;;;;;14.90;13.45;;;14.90;99.90;;;;;;5052790;28;20694;-49
2023/08/29 05:37:33;;;;;;;15.68;14.10;;;14.90;99.90;;;;;;5051777;28;20529;-53
2023/08/29 05:39:58;;;;;;;15.48;14.18;;;14.90;99.90;;;;;;5051675;28;20240;-50
2023/08/29 05:42:25;;;;;;;14.40;12.93;;;14.90;99.90;;;;;;5052676;28;20179;-52
2023/08/29 05:44:50;;;;;;;14.70;13.30;;;14.90;99.90;;;;;;5052597;28;20179;-50
2023/08/29 05:47:16;;;;;;;14.88;13.57;;;14.90;99.90;;;;;;5052802;28;20644;-51
2023/08/29 05:49:42;;;;;;;16.98;14.00;;;15.00;99.90;;;;;;5052665;28;20182;-49
2023/08/29 05:52:07;;;;;;;15.25;13.77;;;15.00;99.90;;;;;;5052574;28;20298;-49
2023/08/29 05:54:36;;;;;;;15.57;14.00;;;15.00;99.90;;;;;;5053189;28;20171;-50
2023/08/29 05:57:03;;;;;;;15.15;13.75;;;15.00;99.90;;;;;;5055994;28;20274;-50
2023/08/29 05:59:28;;;;;;;14.23;12.73;;;14.90;99.90;;;;;;5056199;28;20191;-52
2023/08/29 06:01:54;;;;;;;15.68;14.13;;;14.80;99.90;;;;;;5056230;28;20229;-51
2023/08/29 06:04:20;;;;;;;16.25;14.63;;;14.90;99.90;;;;;;5056119;28;20175;-51
2023/08/29 06:06:48;;;;;;;15.60;14.10;;;14.90;99.90;;;;;;5056103;28;20171;-50
2023/08/29 06:09:13;;;;;;;15.10;13.80;;;14.80;99.90;;;;;;5056077;28;20547;-54
2023/08/29 06:11:39;;;;;;;17.60;15.82;;;14.90;99.90;;;;;;5055845;28;20179;-51
2023/08/29 06:14:05;;;;;;;16.60;15.13;;;15.00;99.90;;;;;;5055788;28;20706;-51
2023/08/29 06:16:31;;;;;;;17.45;15.85;;;15.00;99.90;;;;;;5055723;28;20172;-54
2023/08/29 06:18:56;;;;;;;17.52;15.65;;;15.00;99.90;;;;;;5054251;28;20186;-54
2023/08/29 06:21:22;;;;;;;18.45;16.58;;;14.90;99.90;;;;;;5055518;28;20632;-50
2023/08/29 06:23:48;;;;;;;19.27;17.50;;;14.90;99.90;;;;;;5055596;28;20240;-49
2023/08/29 06:26:15;;;;;;;20.02;18.02;;;15.00;99.90;;;;;;5055369;28;20183;-53
2023/08/29 06:28:41;;;;;;;19.83;17.92;;;15.00;99.90;;;;;;5055365;28;20210;-53
2023/08/29 06:31:08;;;;;;;18.17;16.58;;;15.10;99.90;;;;;;5055128;28;20222;-53
2023/08/29 06:33:34;;;;;;;19.80;17.63;;;15.20;99.90;;;;;;5055292;28;20603;-54
2023/08/29 06:36:00;;;;;;;19.00;17.20;;;15.30;99.90;;;;;;5055476;28;20242;-52
2023/08/29 06:38:26;;;;;;;20.38;18.30;;;15.30;99.90;;;;;;5055368;28;20175;-51
2023/08/29 06:40:56;;;;;;;20.10;17.48;;;15.40;99.90;;;;;;5055236;28;20183;-54
2023/08/29 06:43:22;;;;;;;19.35;17.55;;;15.40;99.90;;;;;;5055351;28;20658;-52
2023/08/29 06:45:48;;;;;;;20.38;18.58;;;15.50;99.90;;;;;;5055373;28;20206;-53
2023/08/29 06:48:14;;;;;;;20.52;18.67;;;15.40;99.90;;;;;;5054048;28;20175;-51
2023/08/29 06:50:40;;;;;;;19.17;17.48;;;15.50;99.90;;;;;;5055075;28;20172;-51
2023/08/29 06:53:06;;;;;;;20.52;18.33;;;15.60;99.90;;;;;;5055080;28;20206;-50
2023/08/29 06:55:34;;;;;;;18.90;17.20;;;15.60;99.90;;;;;;5054866;28;20175;-51
2023/08/29 06:58:00;;;;;;;19.80;17.80;;;15.70;99.90;;;;;;5055112;28;20167;-53
2023/08/29 07:00:26;;;;;;;19.88;17.85;;;15.80;99.90;;;;;;5054987;28;20172;-52
2023/08/29 07:02:51;;;;;;;19.23;17.15;;;15.90;99.90;;;;;;5054781;28;20187;-54
2023/08/29 07:05:17;;;;;;;18.90;17.10;;;15.90;99.90;;;;;;5054661;28;20176;-54
2023/08/29 07:07:43;;;;;;;18.30;16.50;;;16.00;99.90;;;;;;5053842;28;20288;-53
2023/08/29 07:10:09;;;;;;;18.67;16.80;;;16.10;99.90;;;;;;5053249;28;20190;-51
2023/08/29 07:12:35;;;;;;;20.08;17.95;;;16.10;99.90;;;;;;5054337;28;20211;-54
2023/08/29 07:15:01;;;;;;;19.30;16.65;;;16.20;99.90;;;;;;5054545;28;20238;-52
2023/08/29 07:17:27;;;;;;;18.40;16.60;;;16.20;99.90;;;;;;5054624;28;20175;-51
2023/08/29 07:19:53;;;;;;;17.58;15.80;;;16.20;99.90;;;;;;5054560;28;20692;-52
2023/08/29 07:22:19;;;;;;;17.58;15.98;;;16.30;99.90;;;;;;5054377;28;20183;-53
2023/08/29 07:24:44;;;;;;;16.98;14.75;;;16.50;99.90;;;;;;5052888;28;20179;-53
2023/08/29 07:27:10;;;;;;;16.52;14.52;;;16.50;99.90;;;;;;5054446;28;20183;-48
2023/08/29 07:29:36;;;;;;;15.52;13.93;;;16.60;99.90;;;;;;5054244;28;20181;-53
2023/08/29 07:32:02;;;;;;;14.18;12.75;;;16.60;99.90;;;;;;5054059;28;20175;-54
2023/08/29 07:34:27;;;;;;;15.43;14.02;;;16.70;99.90;;;;;;5054049;28;20203;-53
2023/08/29 07:36:53;;;;;;;14.18;12.88;;;16.80;99.90;;;;;;5054148;28;20203;-53
2023/08/29 07:39:22;;;;;;;14.60;13.20;;;16.90;99.90;;;;;;5053947;28;20172;-52
2023/08/29 07:41:47;;;;;;;14.73;13.27;;;16.90;99.90;;;;;;5054310;28;20167;-54
2023/08/29 07:44:13;;;;;;;15.50;14.07;;;16.90;99.90;;;;;;5053111;28;20183;-51
2023/08/29 07:46:39;;;;;;;14.98;13.55;;;16.90;99.90;;;;;;5054168;28;20232;-52
2023/08/29 07:49:13;;;;;;;14.60;13.05;;;17.00;99.90;;;;;;5053931;28;20171;-50
2023/08/29 07:51:39;;;;;;;14.35;12.95;;;17.10;99.90;;;;;;5053566;28;20540;-51
2023/08/29 07:54:05;;;;;;;13.73;12.43;;;17.10;99.90;;;;;;5053502;28;20272;-51
2023/08/29 07:56:30;;;;;;;14.60;12.93;;;17.10;99.90;;;;;;5053818;28;20175;-53
2023/08/29 07:58:56;;;;;;;13.98;12.57;;;17.20;99.90;;;;;;5053794;28;20181;-53
2023/08/29 08:01:22;;;;;;;14.18;12.77;;;17.20;99.90;;;;;;5053933;28;20225;-52
2023/08/29 08:03:47;;;;;;;14.98;13.57;;;17.30;99.90;;;;;;5053676;28;20205;-50
2023/08/29 08:06:13;;;;;;;12.93;11.65;;;17.30;99.90;;;;;;5053643;28;20177;-52
2023/08/29 08:08:38;;;;;;;14.05;12.75;;;17.30;99.90;;;;;;5053472;28;20236;-53
2023/08/29 08:11:05;;;;;;;13.27;12.07;;;17.30;99.90;;;;;;5053578;28;20167;-52
2023/08/29 08:13:31;;;;;;;12.70;11.60;;;17.50;99.90;;;;;;5053433;28;20219;-52
2023/08/29 08:15:57;;;;;;;14.60;13.30;;;17.50;99.90;;;;;;5053406;28;20228;-51
2023/08/29 08:18:22;;;;;;;14.70;13.25;;;17.60;99.90;;;;;;5052521;28;20180;-52
2023/08/29 08:20:48;;;;;;;13.50;11.60;;;17.70;99.90;;;;;;5053151;28;20234;-51
2023/08/29 08:23:14;;;;;;;12.98;11.68;;;17.70;99.90;;;;;;5053156;28;20182;-52
2023/08/29 08:25:39;;;;;;;13.55;12.10;;;17.70;99.90;;;;;;5053403;28;20181;-52
2023/08/29 08:28:06;;;;;;;15.73;13.40;;;17.90;99.90;;;;;;5053395;28;20262;-54
2023/08/29 08:30:32;;;;;;;14.23;12.75;;;17.90;99.90;;;;;;5053208;28;20225;-53
2023/08/29 08:32:57;;;;;;;14.35;12.60;;;17.90;99.90;;;;;;5053075;28;20203;-52
2023/08/29 08:35:25;;;;;;;13.35;11.95;;;17.90;99.90;;;;;;5053133;28;20488;-52
2023/08/29 08:37:50;;;;;;;12.73;11.20;;;18.00;99.90;;;;;;5052946;28;20616;-50
2023/08/29 08:40:16;;;;;;;13.45;11.45;;;18.00;99.90;;;;;;5052957;28;20257;-51
2023/08/29 08:42:44;;;;;;;13.65;10.77;;;18.10;99.90;;;;;;5053094;28;20190;-51
2023/08/29 08:45:10;;;;;;;11.10;9.65;;;18.20;99.90;;;;;;5052921;28;20747;-51
2023/08/29 08:47:37;;;;;;;14.65;9.65;;;18.30;99.90;;;;;;5052917;28;20259;-52
2023/08/29 08:50:04;;;;;;;11.85;9.77;;;18.30;99.90;;;;;;5052788;28;20179;-52
2023/08/29 08:52:36;;;;;;;15.15;10.85;;;18.50;99.90;;;;;;5052569;28;20298;-50
2023/08/29 08:55:02;;;;;;;14.95;9.65;;;18.50;99.90;;;;;;5053043;28;20270;-49
2023/08/29 08:57:28;;;;;;;12.02;7.90;;;18.40;99.90;;;;;;5052869;28;20217;-52
2023/08/29 08:59:54;;;;;;;10.00;6.95;;;18.50;99.90;;;;;;5052818;28;20176;-49
2023/08/29 09:02:20;;;;;;;7.32;6.60;;;18.50;99.90;;;;;;5052828;28;20183;-49
2023/08/29 09:04:45;;;;;;;7.72;6.72;;;18.70;99.90;;;;;;5052634;28;20175;-52
2023/08/29 09:07:11;;;;;;;10.20;6.90;;;18.70;99.90;;;;;;5052541;28;20171;-51
2023/08/29 09:09:37;;;;;;;7.47;6.20;;;18.80;99.90;;;;;;5052774;28;20217;-52
2023/08/29 09:12:03;;;;;;;8.05;6.65;;;18.80;99.90;;;;;;5052658;28;20176;-52
2023/08/29 09:14:31;;;;;;;7.30;6.60;;;18.80;99.90;;;;;;5052719;28;20594;-50
2023/08/29 09:17:00;;;;;;;8.25;7.25;;;18.80;99.90;;;;;;5052642;28;20168;-51
2023/08/29 09:19:34;;;;;;;6.90;6.30;;;19.00;99.90;;;;;;5052327;28;20235;-51
2023/08/29 09:22:00;;;;;;;7.80;7.10;;;19.10;99.90;;;;;;5052673;28;20218;-52
2023/08/29 09:24:33;;;;;;;6.72;6.20;;;19.30;99.90;;;;;;5052628;28;20211;-49
2023/08/29 09:27:00;;;;;;;6.50;5.90;;;19.60;99.90;;;;;;5052562;28;20183;-52
2023/08/29 09:29:27;;;;;;;5.68;5.18;;;19.80;99.90;;;;;;5052900;28;20259;-50
2023/08/29 09:31:57;;;;;;;6.85;6.25;;;19.90;99.90;;;;;;5056219;28;20244;-52
2023/08/29 09:34:28;;;;;;;4.30;3.90;;;19.90;99.90;;;;;;5056513;28;20562;-51
2023/08/29 09:36:54;;;;;;;3.53;3.08;;;20.00;99.90;;;;;;5056319;28;20179;-52
2023/08/29 09:39:21;;;;;;;4.35;3.95;;;20.10;99.90;;;;;;5056211;28;20233;-52
2023/08/29 09:42:06;;;;;;;4.95;4.55;;;20.40;99.90;;;;;;5056090;28;20270;-52
2023/08/29 09:44:37;;;;;;;5.07;4.68;;;20.20;99.90;;;;;;5055949;28;20534;-52
2023/08/29 09:47:05;;;;;;;4.80;4.40;;;20.20;99.90;;;;;;5056168;28;20183;-52
2023/08/29 09:49:50;;;;;;;4.80;4.32;;;20.40;99.90;;;;;;5055918;28;20615;-50
2023/08/29 09:52:16;;;;;;;4.65;4.25;;;20.40;99.90;;;;;;5055885;28;20215;-53
2023/08/29 09:54:47;;;;;;;5.30;3.90;;;20.50;99.90;;;;;;5055906;28;20168;-52
2023/08/29 09:57:19;;;;;;;4.22;3.88;;;20.50;99.90;;;;;;5056095;28;20175;-52
2023/08/29 09:59:46;;;;;;;4.97;4.47;;;20.80;99.90;;;;;;5056159;28;20167;-52
2023/08/29 10:02:14;;;;;;;4.82;4.10;;;21.10;99.90;;;;;;5055839;28;20176;-53
2023/08/29 10:04:46;;;;;;;5.68;4.95;;;21.30;99.90;;;;;;5055624;28;20669;-51
2023/08/29 10:07:25;;;;;;;4.85;4.40;;;21.10;99.90;;;;;;5055625;28;20182;-52
2023/08/29 10:09:52;;;;;;;4.53;3.90;;;21.30;99.90;;;;;;5055878;28;20175;-52
2023/08/29 10:12:18;;;;;;;4.75;4.13;;;21.30;99.90;;;;;;5055613;28;20760;-51
2023/08/29 10:14:45;;;;;;;4.18;3.78;;;21.20;99.90;;;;;;5055658;28;20271;-51
2023/08/29 10:17:12;;;;;;;4.18;3.67;;;21.20;99.90;;;;;;5055613;28;20179;-49
2023/08/29 10:19:39;;;;;;;4.00;3.70;;;21.00;99.90;;;;;;5055444;28;20226;-50
2023/08/29 10:22:07;;;;;;;4.35;3.65;;;21.10;99.90;;;;;;5055692;28;20171;-48
2023/08/29 10:24:36;;;;;;;4.00;3.60;;;21.30;99.90;;;;;;5055563;28;20525;-52
2023/08/29 10:27:03;;;;;;;6.60;3.97;;;21.50;99.90;;;;;;5055574;28;20313;-50
2023/08/29 10:29:32;;;;;;;3.80;3.40;;;21.60;99.90;;;;;;5055723;28;20180;-51
2023/08/29 10:32:01;;;;;;;4.32;3.47;;;21.70;99.90;;;;;;5055380;28;20714;-53
2023/08/29 10:34:28;;;;;;;4.30;3.60;;;21.70;99.90;;;;;;5055437;28;20696;-53
2023/08/29 10:36:55;;;;;;;3.85;3.38;;;21.70;99.90;;;;;;5055436;28;20199;-52
2023/08/29 10:39:21;;;;;;;3.80;3.50;;;21.70;99.90;;;;;;5055607;28;20179;-52
2023/08/29 10:41:48;;;;;;;4.30;4.00;;;21.70;99.90;;;;;;5054324;28;20587;-51
2023/08/29 10:44:32;;;;;;;3.38;3.08;;;21.90;99.90;;;;;;5055271;28;20536;-51
2023/08/29 10:47:30;;;;;;;3.80;3.50;;;21.80;99.90;;;;;;5055192;28;20171;-50
2023/08/29 10:50:07;;;;;;;4.88;3.65;;;22.00;99.90;;;;;;5055336;28;20182;-52
2023/08/29 10:52:36;;;;;;;4.97;4.40;;;22.00;99.90;;;;;;5055195;28;20694;-50
2023/08/29 10:55:06;;;;;;;5.07;4.57;;;22.10;99.90;;;;;;5055118;28;20184;-53
2023/08/29 10:57:33;;;;;;;5.20;4.13;;;22.10;99.90;;;;;;5055037;28;20536;-52
2023/08/29 10:59:58;;;;;;;9.60;8.07;;;22.20;99.90;;;;;;5055296;28;20630;-52
2023/08/29 11:02:29;;;;;;;6.35;5.15;;;22.10;99.90;;;;;;5055080;28;20322;-53
2023/08/29 11:05:03;;;;;;;4.57;4.18;;;22.10;99.90;;;;;;5054946;28;20176;-53
2023/08/29 11:07:30;;;;;;;4.55;3.65;;;22.40;99.90;;;;;;5054806;28;20541;-53
2023/08/29 11:10:16;;;;;;;2.85;2.47;;;22.40;99.90;;;;;;5054743;28;20171;-51
2023/08/29 11:13:06;;;;;;;4.97;2.38;;;22.60;99.90;;;;;;5054813;28;20298;-49
2023/08/29 11:15:49;;;;;;;4.80;3.50;;;22.60;99.90;;;;;;5054788;28;20176;-52
2023/08/29 11:18:26;;;;;;;3.88;3.00;;;22.60;99.90;;;;;;5054601;28;20175;-48
2023/08/29 11:20:53;;;;;;;3.63;3.05;;;22.60;99.90;;;;;;5054702;28;20210;-54
2023/08/29 11:23:20;;;;;;;4.10;2.70;;;22.70;99.90;;;;;;5054653;28;20202;-53
2023/08/29 11:25:52;;;;;;;4.10;2.67;;;22.70;99.90;;;;;;5054320;28;20175;-53
2023/08/29 11:28:18;;;;;;;3.35;2.67;;;22.70;99.90;;;;;;5054473;28;20221;-51
2023/08/29 11:30:45;;;;;;;4.18;2.70;;;22.40;99.90;;;;;;5054373;28;20172;-52
2023/08/29 11:33:14;;;;;;;5.97;2.97;;;21.90;99.90;;;;;;5054254;28;20737;-52
2023/08/29 11:35:42;;;;;;;4.90;2.75;;;21.40;99.90;;;;;;5054466;28;20221;-51
2023/08/29 11:38:08;;;;;;;7.78;2.85;;;20.90;99.90;;;;;;5054671;28;20179;-51
2023/08/29 11:40:36;;;;;;;4.78;2.80;;;20.50;99.90;;;;;;5054431;28;20661;-53
2023/08/29 11:43:01;;;;;;;5.35;2.90;;;20.30;99.90;;;;;;5054321;28;20175;-52
2023/08/29 11:45:30;;;;;;;4.30;2.88;;;20.10;99.90;;;;;;5053992;28;20328;-53
2023/08/29 11:47:56;;;;;;;5.30;2.72;;;19.90;99.90;;;;;;5054115;28;20187;-51
2023/08/29 11:50:22;;;;;;;7.10;2.78;;;19.60;99.90;;;;;;5054155;28;20589;-53
2023/08/29 11:52:48;;;;;;;5.53;3.42;;;19.60;99.90;;;;;;5053846;28;20326;-52
2023/08/29 11:55:16;;;;;;;5.78;3.10;;;19.40;99.90;;;;;;5054144;28;20628;-52
2023/08/29 11:57:45;;;;;;;6.47;2.78;;;19.30;99.90;;;;;;5053863;28;20246;-54
2023/08/29 12:00:12;;;;;;;5.32;2.70;;;19.20;99.90;;;;;;5053827;28;20683;-52
2023/08/29 12:02:38;;;;;;;4.70;2.65;;;19.20;99.90;;;;;;5053888;28;20190;-50
2023/08/29 12:05:10;;;;;;;3.72;2.60;;;19.10;99.90;;;;;;5053910;28;20172;-54
2023/08/29 12:07:36;;;;;;;3.88;2.72;;;19.10;99.90;;;;;;5053909;28;20266;-54
2023/08/29 12:10:13;;;;;;;5.57;2.72;;;19.00;99.90;;;;;;5053753;28;20254;-49
2023/08/29 12:12:40;;;;;;;7.18;2.90;;;19.10;99.90;;;;;;5053522;28;20675;-51
2023/08/29 12:15:11;;;;;;;4.20;2.60;;;19.00;99.90;;;;;;5053778;28;20229;-48
2023/08/29 12:17:39;;;;;;;4.82;2.92;;;18.90;99.90;;;;;;5053662;28;20175;-52
2023/08/29 12:20:12;;;;;;;5.43;2.95;;;18.90;99.90;;;;;;5053478;28;20293;-51
2023/08/29 12:22:39;;;;;;;3.22;2.78;;;19.00;99.90;;;;;;5053567;28;20182;-52
2023/08/29 12:25:05;;;;;;;4.90;3.28;;;19.00;99.90;;;;;;5053364;28;20192;-51
2023/08/29 12:27:31;;;;;;;4.32;3.20;;;19.00;99.90;;;;;;5053568;28;20221;-52
2023/08/29 12:29:57;;;;;;;4.32;3.08;;;19.10;99.90;;;;;;5053748;28;20179;-54
2023/08/29 12:32:27;;;;;;;4.55;3.00;;;19.10;99.90;;;;;;5053254;28;20202;-52
2023/08/29 12:34:54;;;;;;;6.03;3.67;;;19.20;99.90;;;;;;5053740;28;20182;-51
2023/08/29 12:37:20;;;;;;;8.90;4.03;;;19.00;99.90;;;;;;5053316;28;20665;-48
2023/08/29 12:39:46;;;;;;;4.53;3.50;;;19.10;99.90;;;;;;5053168;28;20176;-51